sensor_id;sensor_type;location;lat;lon;timestamp;P1;durP1;ratioP1;P2;durP2;ratioP2
22234;SDS011;11286;45.596;5.284;2022-07-11T00:02:22;3.65;;;2.83;;
22234;SDS011;11286;45.596;5.284;2022-07-11T00:04:47;3.17;;;2.45;;
22234;SDS011;11286;45.596;5.284;2022-07-11T00:07:13;3.20;;;2.60;;
22234;SDS011;11286;45.596;5.284;2022-07-11T00:09:39;3.45;;;2.80;;
22234;SDS011;11286;45.596;5.284;2022-07-11T00:12:05;4.85;;;2.90;;
22234;SDS011;11286;45.596;5.284;2022-07-11T00:14:32;4.45;;;2.78;;
22234;SDS011;11286;45.596;5.284;2022-07-11T00:16:57;3.70;;;3.40;;
22234;SDS011;11286;45.596;5.284;2022-07-11T00:19:23;4.50;;;3.20;;
22234;SDS011;11286;45.596;5.284;2022-07-11T00:21:49;4.20;;;2.80;;
22234;SDS011;11286;45.596;5.284;2022-07-11T00:24:16;6.13;;;2.85;;
22234;SDS011;11286;45.596;5.284;2022-07-11T00:26:47;4.57;;;2.80;;
22234;SDS011;11286;45.596;5.284;2022-07-11T00:29:14;4.22;;;2.50;;
22234;SDS011;11286;45.596;5.284;2022-07-11T00:31:40;4.53;;;2.22;;
22234;SDS011;11286;45.596;5.284;2022-07-11T00:34:06;4.68;;;2.25;;
22234;SDS011;11286;45.596;5.284;2022-07-11T00:36:31;2.67;;;2.15;;
22234;SDS011;11286;45.596;5.284;2022-07-11T00:38:57;3.15;;;2.10;;
22234;SDS011;11286;45.596;5.284;2022-07-11T00:41:23;2.92;;;1.77;;
22234;SDS011;11286;45.596;5.284;2022-07-11T00:43:50;4.18;;;1.75;;
22234;SDS011;11286;45.596;5.284;2022-07-11T00:46:21;3.22;;;1.95;;
22234;SDS011;11286;45.596;5.284;2022-07-11T00:48:48;3.58;;;1.90;;
22234;SDS011;11286;45.596;5.284;2022-07-11T00:51:14;2.38;;;1.75;;
22234;SDS011;11286;45.596;5.284;2022-07-11T00:53:42;3.20;;;1.83;;
22234;SDS011;11286;45.596;5.284;2022-07-11T00:56:08;2.92;;;1.80;;
22234;SDS011;11286;45.596;5.284;2022-07-11T00:58:35;2.58;;;1.63;;
22234;SDS011;11286;45.596;5.284;2022-07-11T01:01:01;2.10;;;1.58;;
22234;SDS011;11286;45.596;5.284;2022-07-11T01:03:27;2.05;;;1.58;;
22234;SDS011;11286;45.596;5.284;2022-07-11T01:05:53;5.65;;;1.52;;
22234;SDS011;11286;45.596;5.284;2022-07-11T01:08:19;1.98;;;1.20;;
22234;SDS011;11286;45.596;5.284;2022-07-11T01:10:45;2.75;;;1.55;;
22234;SDS011;11286;45.596;5.284;2022-07-11T01:13:11;2.65;;;1.30;;
22234;SDS011;11286;45.596;5.284;2022-07-11T01:15:36;1.77;;;1.50;;
22234;SDS011;11286;45.596;5.284;2022-07-11T01:18:02;3.60;;;1.40;;
22234;SDS011;11286;45.596;5.284;2022-07-11T01:20:28;5.68;;;1.60;;
22234;SDS011;11286;45.596;5.284;2022-07-11T01:22:55;3.17;;;1.23;;
22234;SDS011;11286;45.596;5.284;2022-07-11T01:25:26;2.53;;;1.52;;
22234;SDS011;11286;45.596;5.284;2022-07-11T01:27:58;5.63;;;1.80;;
22234;SDS011;11286;45.596;5.284;2022-07-11T01:30:25;5.35;;;1.80;;
22234;SDS011;11286;45.596;5.284;2022-07-11T01:32:53;2.92;;;1.70;;
22234;SDS011;11286;45.596;5.284;2022-07-11T01:35:19;1.88;;;1.60;;
22234;SDS011;11286;45.596;5.284;2022-07-11T01:37:45;2.53;;;1.60;;
22234;SDS011;11286;45.596;5.284;2022-07-11T01:40:11;2.85;;;1.50;;
22234;SDS011;11286;45.596;5.284;2022-07-11T01:42:37;3.90;;;1.70;;
22234;SDS011;11286;45.596;5.284;2022-07-11T01:45:03;1.92;;;1.45;;
22234;SDS011;11286;45.596;5.284;2022-07-11T01:47:29;3.10;;;1.40;;
22234;SDS011;11286;45.596;5.284;2022-07-11T01:49:54;3.15;;;1.42;;
22234;SDS011;11286;45.596;5.284;2022-07-11T01:52:20;1.83;;;1.45;;
22234;SDS011;11286;45.596;5.284;2022-07-11T01:54:46;1.67;;;1.33;;
22234;SDS011;11286;45.596;5.284;2022-07-11T01:57:12;3.28;;;1.45;;
22234;SDS011;11286;45.596;5.284;2022-07-11T01:59:38;3.95;;;1.75;;
22234;SDS011;11286;45.596;5.284;2022-07-11T02:02:04;3.00;;;1.60;;
22234;SDS011;11286;45.596;5.284;2022-07-11T02:04:30;2.55;;;2.03;;
22234;SDS011;11286;45.596;5.284;2022-07-11T02:06:56;2.40;;;1.75;;
22234;SDS011;11286;45.596;5.284;2022-07-11T02:09:21;2.03;;;1.73;;
22234;SDS011;11286;45.596;5.284;2022-07-11T02:11:47;1.73;;;1.33;;
22234;SDS011;11286;45.596;5.284;2022-07-11T02:14:13;4.47;;;1.60;;
22234;SDS011;11286;45.596;5.284;2022-07-11T02:16:39;3.05;;;1.50;;
22234;SDS011;11286;45.596;5.284;2022-07-11T02:19:04;3.72;;;1.88;;
22234;SDS011;11286;45.596;5.284;2022-07-11T02:21:31;4.28;;;1.77;;
22234;SDS011;11286;45.596;5.284;2022-07-11T02:23:57;2.20;;;1.70;;
22234;SDS011;11286;45.596;5.284;2022-07-11T02:26:23;2.55;;;1.70;;
22234;SDS011;11286;45.596;5.284;2022-07-11T02:28:49;2.85;;;2.08;;
22234;SDS011;11286;45.596;5.284;2022-07-11T02:31:14;2.97;;;2.03;;
22234;SDS011;11286;45.596;5.284;2022-07-11T02:33:40;3.17;;;2.08;;
22234;SDS011;11286;45.596;5.284;2022-07-11T02:36:07;3.97;;;2.42;;
22234;SDS011;11286;45.596;5.284;2022-07-11T02:38:33;2.47;;;2.05;;
22234;SDS011;11286;45.596;5.284;2022-07-11T02:40:59;3.20;;;2.00;;
22234;SDS011;11286;45.596;5.284;2022-07-11T02:43:25;4.55;;;2.10;;
22234;SDS011;11286;45.596;5.284;2022-07-11T02:45:51;4.20;;;2.22;;
22234;SDS011;11286;45.596;5.284;2022-07-11T02:48:17;2.88;;;2.00;;
22234;SDS011;11286;45.596;5.284;2022-07-11T02:50:43;2.50;;;2.30;;
22234;SDS011;11286;45.596;5.284;2022-07-11T02:53:08;2.33;;;1.85;;
22234;SDS011;11286;45.596;5.284;2022-07-11T02:55:34;3.40;;;2.35;;
22234;SDS011;11286;45.596;5.284;2022-07-11T02:58:00;3.20;;;2.00;;
22234;SDS011;11286;45.596;5.284;2022-07-11T03:00:26;5.32;;;2.30;;
22234;SDS011;11286;45.596;5.284;2022-07-11T03:02:52;3.20;;;2.22;;
22234;SDS011;11286;45.596;5.284;2022-07-11T03:05:17;2.47;;;1.92;;
22234;SDS011;11286;45.596;5.284;2022-07-11T03:07:43;4.82;;;2.20;;
22234;SDS011;11286;45.596;5.284;2022-07-11T03:10:09;3.97;;;2.00;;
22234;SDS011;11286;45.596;5.284;2022-07-11T03:12:35;4.28;;;2.20;;
22234;SDS011;11286;45.596;5.284;2022-07-11T03:15:00;4.65;;;2.10;;
22234;SDS011;11286;45.596;5.284;2022-07-11T03:17:26;3.35;;;1.85;;
22234;SDS011;11286;45.596;5.284;2022-07-11T03:19:52;2.85;;;1.75;;
22234;SDS011;11286;45.596;5.284;2022-07-11T03:22:18;3.30;;;2.00;;
22234;SDS011;11286;45.596;5.284;2022-07-11T03:24:44;4.88;;;2.10;;
22234;SDS011;11286;45.596;5.284;2022-07-11T03:27:10;3.47;;;2.10;;
22234;SDS011;11286;45.596;5.284;2022-07-11T03:29:35;2.35;;;1.77;;
22234;SDS011;11286;45.596;5.284;2022-07-11T03:32:01;2.88;;;2.28;;
22234;SDS011;11286;45.596;5.284;2022-07-11T03:34:28;2.45;;;2.25;;
22234;SDS011;11286;45.596;5.284;2022-07-11T03:36:53;3.58;;;2.40;;
22234;SDS011;11286;45.596;5.284;2022-07-11T03:39:19;3.72;;;2.10;;
22234;SDS011;11286;45.596;5.284;2022-07-11T03:41:46;3.65;;;2.20;;
22234;SDS011;11286;45.596;5.284;2022-07-11T03:44:12;4.82;;;2.08;;
22234;SDS011;11286;45.596;5.284;2022-07-11T03:46:37;4.72;;;2.10;;
22234;SDS011;11286;45.596;5.284;2022-07-11T03:49:03;6.78;;;2.22;;
22234;SDS011;11286;45.596;5.284;2022-07-11T03:51:29;2.88;;;2.03;;
22234;SDS011;11286;45.596;5.284;2022-07-11T03:53:55;2.72;;;2.20;;
22234;SDS011;11286;45.596;5.284;2022-07-11T03:56:20;2.40;;;2.00;;
22234;SDS011;11286;45.596;5.284;2022-07-11T03:58:50;3.22;;;2.30;;
22234;SDS011;11286;45.596;5.284;2022-07-11T04:01:16;3.33;;;2.10;;
22234;SDS011;11286;45.596;5.284;2022-07-11T04:03:41;2.78;;;2.38;;
22234;SDS011;11286;45.596;5.284;2022-07-11T04:06:07;4.68;;;2.45;;
22234;SDS011;11286;45.596;5.284;2022-07-11T04:08:33;4.35;;;2.10;;
22234;SDS011;11286;45.596;5.284;2022-07-11T04:10:58;5.32;;;2.53;;
22234;SDS011;11286;45.596;5.284;2022-07-11T04:13:24;3.35;;;2.20;;
22234;SDS011;11286;45.596;5.284;2022-07-11T04:15:50;3.78;;;2.20;;
22234;SDS011;11286;45.596;5.284;2022-07-11T04:18:15;5.13;;;2.40;;
22234;SDS011;11286;45.596;5.284;2022-07-11T04:20:42;2.63;;;2.20;;
22234;SDS011;11286;45.596;5.284;2022-07-11T04:23:07;2.78;;;2.15;;
22234;SDS011;11286;45.596;5.284;2022-07-11T04:25:33;3.28;;;2.33;;
22234;SDS011;11286;45.596;5.284;2022-07-11T04:28:00;5.35;;;2.33;;
22234;SDS011;11286;45.596;5.284;2022-07-11T04:30:25;4.72;;;2.58;;
22234;SDS011;11286;45.596;5.284;2022-07-11T04:32:51;3.97;;;2.35;;
22234;SDS011;11286;45.596;5.284;2022-07-11T04:35:17;5.78;;;2.42;;
22234;SDS011;11286;45.596;5.284;2022-07-11T04:37:43;5.15;;;2.20;;
22234;SDS011;11286;45.596;5.284;2022-07-11T04:40:09;3.17;;;2.30;;
22234;SDS011;11286;45.596;5.284;2022-07-11T04:42:35;5.93;;;2.20;;
22234;SDS011;11286;45.596;5.284;2022-07-11T04:45:01;3.08;;;2.30;;
22234;SDS011;11286;45.596;5.284;2022-07-11T04:47:26;3.28;;;2.20;;
22234;SDS011;11286;45.596;5.284;2022-07-11T04:49:52;5.05;;;2.30;;
22234;SDS011;11286;45.596;5.284;2022-07-11T04:52:17;2.90;;;2.30;;
22234;SDS011;11286;45.596;5.284;2022-07-11T04:54:43;3.67;;;2.15;;
22234;SDS011;11286;45.596;5.284;2022-07-11T04:57:09;4.90;;;2.47;;
22234;SDS011;11286;45.596;5.284;2022-07-11T04:59:34;2.42;;;2.10;;
22234;SDS011;11286;45.596;5.284;2022-07-11T05:02:00;3.95;;;2.25;;
22234;SDS011;11286;45.596;5.284;2022-07-11T05:04:26;5.22;;;2.40;;
22234;SDS011;11286;45.596;5.284;2022-07-11T05:06:52;6.35;;;2.35;;
22234;SDS011;11286;45.596;5.284;2022-07-11T05:09:17;2.55;;;2.35;;
22234;SDS011;11286;45.596;5.284;2022-07-11T05:11:43;5.50;;;2.25;;
22234;SDS011;11286;45.596;5.284;2022-07-11T05:14:09;5.35;;;2.30;;
22234;SDS011;11286;45.596;5.284;2022-07-11T05:16:34;3.80;;;2.53;;
22234;SDS011;11286;45.596;5.284;2022-07-11T05:19:00;10.25;;;3.15;;
22234;SDS011;11286;45.596;5.284;2022-07-11T05:21:25;6.38;;;2.50;;
22234;SDS011;11286;45.596;5.284;2022-07-11T05:23:51;4.45;;;2.35;;
22234;SDS011;11286;45.596;5.284;2022-07-11T05:26:17;7.10;;;2.65;;
22234;SDS011;11286;45.596;5.284;2022-07-11T05:28:42;5.65;;;3.22;;
22234;SDS011;11286;45.596;5.284;2022-07-11T05:31:08;8.50;;;3.65;;
22234;SDS011;11286;45.596;5.284;2022-07-11T05:33:34;6.57;;;3.08;;
22234;SDS011;11286;45.596;5.284;2022-07-11T05:36:00;8.25;;;2.83;;
22234;SDS011;11286;45.596;5.284;2022-07-11T05:38:26;6.65;;;2.83;;
22234;SDS011;11286;45.596;5.284;2022-07-11T05:40:52;7.70;;;2.22;;
22234;SDS011;11286;45.596;5.284;2022-07-11T05:43:18;4.60;;;2.00;;
22234;SDS011;11286;45.596;5.284;2022-07-11T05:45:44;4.90;;;2.00;;
22234;SDS011;11286;45.596;5.284;2022-07-11T05:48:09;4.22;;;2.05;;
22234;SDS011;11286;45.596;5.284;2022-07-11T05:50:35;3.35;;;1.80;;
22234;SDS011;11286;45.596;5.284;2022-07-11T05:53:01;4.10;;;2.20;;
22234;SDS011;11286;45.596;5.284;2022-07-11T05:55:27;3.83;;;2.40;;
22234;SDS011;11286;45.596;5.284;2022-07-11T05:57:56;2.63;;;1.80;;
22234;SDS011;11286;45.596;5.284;2022-07-11T06:00:24;4.15;;;1.98;;
22234;SDS011;11286;45.596;5.284;2022-07-11T06:02:52;3.42;;;1.83;;
22234;SDS011;11286;45.596;5.284;2022-07-11T06:05:18;3.35;;;1.70;;
22234;SDS011;11286;45.596;5.284;2022-07-11T06:07:43;3.95;;;1.60;;
22234;SDS011;11286;45.596;5.284;2022-07-11T06:10:41;4.68;;;1.88;;
22234;SDS011;11286;45.596;5.284;2022-07-11T06:13:07;2.17;;;1.55;;
22234;SDS011;11286;45.596;5.284;2022-07-11T06:15:32;3.13;;;1.60;;
22234;SDS011;11286;45.596;5.284;2022-07-11T06:17:58;7.20;;;1.77;;
22234;SDS011;11286;45.596;5.284;2022-07-11T06:20:24;8.93;;;1.95;;
22234;SDS011;11286;45.596;5.284;2022-07-11T06:22:49;2.53;;;1.70;;
22234;SDS011;11286;45.596;5.284;2022-07-11T06:25:15;3.50;;;1.70;;
22234;SDS011;11286;45.596;5.284;2022-07-11T06:27:41;6.30;;;2.00;;
22234;SDS011;11286;45.596;5.284;2022-07-11T06:30:07;3.25;;;2.00;;
22234;SDS011;11286;45.596;5.284;2022-07-11T06:32:32;3.38;;;1.80;;
22234;SDS011;11286;45.596;5.284;2022-07-11T06:34:58;3.75;;;2.05;;
22234;SDS011;11286;45.596;5.284;2022-07-11T06:37:24;3.33;;;1.80;;
22234;SDS011;11286;45.596;5.284;2022-07-11T06:39:50;5.22;;;1.80;;
22234;SDS011;11286;45.596;5.284;2022-07-11T06:42:15;5.30;;;2.05;;
22234;SDS011;11286;45.596;5.284;2022-07-11T06:44:41;4.75;;;1.77;;
22234;SDS011;11286;45.596;5.284;2022-07-11T06:47:07;2.95;;;1.73;;
22234;SDS011;11286;45.596;5.284;2022-07-11T06:49:32;4.95;;;2.00;;
22234;SDS011;11286;45.596;5.284;2022-07-11T06:51:58;6.18;;;1.90;;
22234;SDS011;11286;45.596;5.284;2022-07-11T06:54:23;4.32;;;1.88;;
22234;SDS011;11286;45.596;5.284;2022-07-11T06:56:49;5.43;;;2.03;;
22234;SDS011;11286;45.596;5.284;2022-07-11T06:59:15;6.22;;;1.95;;
22234;SDS011;11286;45.596;5.284;2022-07-11T07:01:40;3.88;;;1.70;;
22234;SDS011;11286;45.596;5.284;2022-07-11T07:04:06;5.65;;;1.98;;
22234;SDS011;11286;45.596;5.284;2022-07-11T07:06:31;3.63;;;1.80;;
22234;SDS011;11286;45.596;5.284;2022-07-11T07:08:57;2.75;;;1.95;;
22234;SDS011;11286;45.596;5.284;2022-07-11T07:11:23;5.38;;;2.35;;
22234;SDS011;11286;45.596;5.284;2022-07-11T07:13:48;4.57;;;1.85;;
22234;SDS011;11286;45.596;5.284;2022-07-11T07:16:15;7.65;;;2.00;;
22234;SDS011;11286;45.596;5.284;2022-07-11T07:18:41;5.20;;;2.10;;
22234;SDS011;11286;45.596;5.284;2022-07-11T07:21:10;4.50;;;2.10;;
22234;SDS011;11286;45.596;5.284;2022-07-11T07:23:36;4.15;;;1.85;;
22234;SDS011;11286;45.596;5.284;2022-07-11T07:26:02;5.25;;;2.13;;
22234;SDS011;11286;45.596;5.284;2022-07-11T07:28:27;5.78;;;2.38;;
22234;SDS011;11286;45.596;5.284;2022-07-11T07:30:53;6.65;;;2.28;;
22234;SDS011;11286;45.596;5.284;2022-07-11T07:33:19;13.60;;;2.42;;
22234;SDS011;11286;45.596;5.284;2022-07-11T07:35:45;6.55;;;2.30;;
22234;SDS011;11286;45.596;5.284;2022-07-11T07:38:10;3.83;;;2.15;;
22234;SDS011;11286;45.596;5.284;2022-07-11T07:40:36;3.47;;;1.83;;
22234;SDS011;11286;45.596;5.284;2022-07-11T07:43:01;8.65;;;2.03;;
22234;SDS011;11286;45.596;5.284;2022-07-11T07:45:27;6.05;;;2.17;;
22234;SDS011;11286;45.596;5.284;2022-07-11T07:47:53;6.30;;;2.20;;
22234;SDS011;11286;45.596;5.284;2022-07-11T07:50:18;5.68;;;2.20;;
22234;SDS011;11286;45.596;5.284;2022-07-11T07:52:44;5.43;;;2.17;;
22234;SDS011;11286;45.596;5.284;2022-07-11T07:55:10;6.30;;;2.00;;
22234;SDS011;11286;45.596;5.284;2022-07-11T07:57:35;3.30;;;2.00;;
22234;SDS011;11286;45.596;5.284;2022-07-11T08:00:03;3.25;;;2.15;;
22234;SDS011;11286;45.596;5.284;2022-07-11T08:02:47;3.88;;;2.08;;
22234;SDS011;11286;45.596;5.284;2022-07-11T08:05:15;2.30;;;1.73;;
22234;SDS011;11286;45.596;5.284;2022-07-11T08:07:42;6.95;;;2.28;;
22234;SDS011;11286;45.596;5.284;2022-07-11T08:10:08;4.10;;;1.98;;
22234;SDS011;11286;45.596;5.284;2022-07-11T08:12:34;4.22;;;2.03;;
22234;SDS011;11286;45.596;5.284;2022-07-11T08:14:59;3.45;;;2.10;;
22234;SDS011;11286;45.596;5.284;2022-07-11T08:17:25;5.35;;;1.95;;
22234;SDS011;11286;45.596;5.284;2022-07-11T08:19:51;3.45;;;1.85;;
22234;SDS011;11286;45.596;5.284;2022-07-11T08:22:16;3.53;;;2.00;;
22234;SDS011;11286;45.596;5.284;2022-07-11T08:24:42;3.85;;;1.80;;
22234;SDS011;11286;45.596;5.284;2022-07-11T08:27:08;3.58;;;1.60;;
22234;SDS011;11286;45.596;5.284;2022-07-11T08:29:34;6.07;;;2.10;;
22234;SDS011;11286;45.596;5.284;2022-07-11T08:32:00;4.32;;;1.80;;
22234;SDS011;11286;45.596;5.284;2022-07-11T08:34:26;2.55;;;1.98;;
22234;SDS011;11286;45.596;5.284;2022-07-11T08:36:52;4.22;;;2.03;;
22234;SDS011;11286;45.596;5.284;2022-07-11T08:39:18;3.60;;;1.95;;
22234;SDS011;11286;45.596;5.284;2022-07-11T08:41:43;3.63;;;1.90;;
22234;SDS011;11286;45.596;5.284;2022-07-11T08:44:13;4.13;;;2.00;;
22234;SDS011;11286;45.596;5.284;2022-07-11T08:46:40;1.90;;;1.80;;
22234;SDS011;11286;45.596;5.284;2022-07-11T08:49:08;6.45;;;1.90;;
22234;SDS011;11286;45.596;5.284;2022-07-11T08:51:37;3.05;;;1.90;;
22234;SDS011;11286;45.596;5.284;2022-07-11T08:54:03;5.40;;;2.30;;
22234;SDS011;11286;45.596;5.284;2022-07-11T08:56:29;3.83;;;2.10;;
22234;SDS011;11286;45.596;5.284;2022-07-11T08:58:56;4.00;;;2.22;;
22234;SDS011;11286;45.596;5.284;2022-07-11T09:01:34;4.97;;;1.92;;
22234;SDS011;11286;45.596;5.284;2022-07-11T09:04:02;3.70;;;2.03;;
22234;SDS011;11286;45.596;5.284;2022-07-11T09:06:27;3.28;;;1.92;;
22234;SDS011;11286;45.596;5.284;2022-07-11T09:08:57;3.90;;;1.90;;
22234;SDS011;11286;45.596;5.284;2022-07-11T09:11:24;5.82;;;2.00;;
22234;SDS011;11286;45.596;5.284;2022-07-11T09:13:50;2.35;;;1.95;;
22234;SDS011;11286;45.596;5.284;2022-07-11T09:16:16;4.53;;;2.10;;
22234;SDS011;11286;45.596;5.284;2022-07-11T09:18:44;3.63;;;2.20;;
22234;SDS011;11286;45.596;5.284;2022-07-11T09:21:10;5.60;;;2.10;;
22234;SDS011;11286;45.596;5.284;2022-07-11T09:23:59;3.25;;;2.08;;
22234;SDS011;11286;45.596;5.284;2022-07-11T09:26:46;4.72;;;1.85;;
22234;SDS011;11286;45.596;5.284;2022-07-11T09:29:15;2.67;;;2.10;;
22234;SDS011;11286;45.596;5.284;2022-07-11T09:31:43;3.25;;;2.03;;
22234;SDS011;11286;45.596;5.284;2022-07-11T09:34:13;3.70;;;1.90;;
22234;SDS011;11286;45.596;5.284;2022-07-11T09:36:47;3.53;;;2.10;;
22234;SDS011;11286;45.596;5.284;2022-07-11T09:39:19;4.32;;;2.00;;
22234;SDS011;11286;45.596;5.284;2022-07-11T09:41:48;3.35;;;2.15;;
22234;SDS011;11286;45.596;5.284;2022-07-11T09:44:26;2.60;;;2.15;;
22234;SDS011;11286;45.596;5.284;2022-07-11T09:46:54;4.00;;;2.10;;
22234;SDS011;11286;45.596;5.284;2022-07-11T09:49:34;2.67;;;2.00;;
22234;SDS011;11286;45.596;5.284;2022-07-11T09:52:08;2.42;;;1.98;;
22234;SDS011;11286;45.596;5.284;2022-07-11T09:54:57;3.40;;;2.13;;
22234;SDS011;11286;45.596;5.284;2022-07-11T09:57:29;3.88;;;1.92;;
22234;SDS011;11286;45.596;5.284;2022-07-11T09:59:55;2.95;;;1.90;;
22234;SDS011;11286;45.596;5.284;2022-07-11T10:02:21;4.57;;;2.08;;
22234;SDS011;11286;45.596;5.284;2022-07-11T10:04:47;4.03;;;2.03;;
22234;SDS011;11286;45.596;5.284;2022-07-11T10:07:13;3.67;;;2.15;;
22234;SDS011;11286;45.596;5.284;2022-07-11T10:09:39;5.65;;;2.42;;
22234;SDS011;11286;45.596;5.284;2022-07-11T10:12:05;4.57;;;2.63;;
22234;SDS011;11286;45.596;5.284;2022-07-11T10:14:34;4.65;;;2.45;;
22234;SDS011;11286;45.596;5.284;2022-07-11T10:20:26;3.47;;;2.08;;
22234;SDS011;11286;45.596;5.284;2022-07-11T10:23:01;3.03;;;2.30;;
22234;SDS011;11286;45.596;5.284;2022-07-11T10:31:00;3.92;;;2.10;;
22234;SDS011;11286;45.596;5.284;2022-07-11T10:33:27;5.03;;;2.30;;
22234;SDS011;11286;45.596;5.284;2022-07-11T10:35:54;2.85;;;2.20;;
22234;SDS011;11286;45.596;5.284;2022-07-11T10:38:20;4.18;;;2.30;;
22234;SDS011;11286;45.596;5.284;2022-07-11T10:45:53;3.65;;;2.30;;
22234;SDS011;11286;45.596;5.284;2022-07-11T10:48:21;3.65;;;2.10;;
22234;SDS011;11286;45.596;5.284;2022-07-11T10:50:47;5.70;;;2.30;;
22234;SDS011;11286;45.596;5.284;2022-07-11T10:53:44;3.17;;;1.90;;
22234;SDS011;11286;45.596;5.284;2022-07-11T10:56:27;3.75;;;2.40;;
22234;SDS011;11286;45.596;5.284;2022-07-11T11:04:43;4.55;;;2.08;;
22234;SDS011;11286;45.596;5.284;2022-07-11T11:09:57;3.85;;;2.20;;
22234;SDS011;11286;45.596;5.284;2022-07-11T11:23:44;5.13;;;3.00;;
22234;SDS011;11286;45.596;5.284;2022-07-11T11:26:44;4.45;;;2.30;;
22234;SDS011;11286;45.596;5.284;2022-07-11T11:29:21;5.07;;;2.55;;
22234;SDS011;11286;45.596;5.284;2022-07-11T11:31:49;3.15;;;2.28;;
22234;SDS011;11286;45.596;5.284;2022-07-11T11:34:17;3.30;;;2.15;;
22234;SDS011;11286;45.596;5.284;2022-07-11T11:36:43;4.07;;;2.42;;
22234;SDS011;11286;45.596;5.284;2022-07-11T11:39:54;3.92;;;2.72;;
22234;SDS011;11286;45.596;5.284;2022-07-11T11:42:08;5.25;;;2.53;;
22234;SDS011;11286;45.596;5.284;2022-07-11T11:44:46;3.10;;;2.40;;
22234;SDS011;11286;45.596;5.284;2022-07-11T11:47:14;5.40;;;2.45;;
22234;SDS011;11286;45.596;5.284;2022-07-11T11:49:41;2.80;;;2.50;;
22234;SDS011;11286;45.596;5.284;2022-07-11T11:52:07;3.45;;;2.25;;
22234;SDS011;11286;45.596;5.284;2022-07-11T11:54:33;3.42;;;2.58;;
22234;SDS011;11286;45.596;5.284;2022-07-11T11:57:04;6.82;;;2.70;;
22234;SDS011;11286;45.596;5.284;2022-07-11T11:59:32;4.57;;;2.70;;
22234;SDS011;11286;45.596;5.284;2022-07-11T12:01:58;2.60;;;2.30;;
22234;SDS011;11286;45.596;5.284;2022-07-11T12:04:24;3.50;;;2.38;;
22234;SDS011;11286;45.596;5.284;2022-07-11T12:06:50;4.65;;;2.40;;
22234;SDS011;11286;45.596;5.284;2022-07-11T12:09:19;2.72;;;2.53;;
22234;SDS011;11286;45.596;5.284;2022-07-11T12:12:05;2.45;;;2.20;;
22234;SDS011;11286;45.596;5.284;2022-07-11T12:14:49;4.40;;;2.50;;
22234;SDS011;11286;45.596;5.284;2022-07-11T12:17:15;3.22;;;2.40;;
22234;SDS011;11286;45.596;5.284;2022-07-11T12:19:41;3.47;;;2.22;;
22234;SDS011;11286;45.596;5.284;2022-07-11T12:22:08;5.18;;;2.35;;
22234;SDS011;11286;45.596;5.284;2022-07-11T12:24:34;3.58;;;2.00;;
22234;SDS011;11286;45.596;5.284;2022-07-11T12:26:59;2.40;;;2.20;;
22234;SDS011;11286;45.596;5.284;2022-07-11T12:29:26;3.28;;;2.40;;
22234;SDS011;11286;45.596;5.284;2022-07-11T12:31:53;4.40;;;2.10;;
22234;SDS011;11286;45.596;5.284;2022-07-11T12:37:09;3.13;;;2.10;;
22234;SDS011;11286;45.596;5.284;2022-07-11T12:39:38;2.75;;;2.25;;
22234;SDS011;11286;45.596;5.284;2022-07-11T12:42:21;1.98;;;1.88;;
22234;SDS011;11286;45.596;5.284;2022-07-11T12:45:08;2.38;;;2.10;;
22234;SDS011;11286;45.596;5.284;2022-07-11T12:47:34;3.00;;;1.85;;
22234;SDS011;11286;45.596;5.284;2022-07-11T12:50:14;3.58;;;2.10;;
22234;SDS011;11286;45.596;5.284;2022-07-11T12:52:45;3.22;;;2.10;;
22234;SDS011;11286;45.596;5.284;2022-07-11T12:58:09;8.25;;;2.33;;
22234;SDS011;11286;45.596;5.284;2022-07-11T13:00:41;2.38;;;2.00;;
22234;SDS011;11286;45.596;5.284;2022-07-11T13:03:28;4.47;;;2.30;;
22234;SDS011;11286;45.596;5.284;2022-07-11T13:05:55;2.97;;;2.15;;
22234;SDS011;11286;45.596;5.284;2022-07-11T13:08:31;3.20;;;2.10;;
22234;SDS011;11286;45.596;5.284;2022-07-11T13:11:08;2.80;;;2.30;;
22234;SDS011;11286;45.596;5.284;2022-07-11T13:13:34;3.70;;;2.30;;
22234;SDS011;11286;45.596;5.284;2022-07-11T13:16:00;3.35;;;2.08;;
22234;SDS011;11286;45.596;5.284;2022-07-11T13:18:26;2.58;;;2.08;;
22234;SDS011;11286;45.596;5.284;2022-07-11T13:20:52;2.10;;;1.90;;
22234;SDS011;11286;45.596;5.284;2022-07-11T13:23:19;2.17;;;1.95;;
22234;SDS011;11286;45.596;5.284;2022-07-11T13:25:45;3.20;;;2.45;;
22234;SDS011;11286;45.596;5.284;2022-07-11T13:28:10;2.40;;;2.20;;
22234;SDS011;11286;45.596;5.284;2022-07-11T13:30:36;3.00;;;2.30;;
22234;SDS011;11286;45.596;5.284;2022-07-11T13:33:03;3.92;;;2.10;;
22234;SDS011;11286;45.596;5.284;2022-07-11T13:35:28;2.58;;;2.13;;
22234;SDS011;11286;45.596;5.284;2022-07-11T13:37:54;2.28;;;1.90;;
22234;SDS011;11286;45.596;5.284;2022-07-11T13:40:21;2.65;;;1.90;;
22234;SDS011;11286;45.596;5.284;2022-07-11T13:42:47;3.58;;;1.98;;
22234;SDS011;11286;45.596;5.284;2022-07-11T13:45:14;5.43;;;2.00;;
22234;SDS011;11286;45.596;5.284;2022-07-11T13:47:41;2.78;;;2.53;;
22234;SDS011;11286;45.596;5.284;2022-07-11T13:50:07;3.15;;;2.03;;
22234;SDS011;11286;45.596;5.284;2022-07-11T13:52:33;3.75;;;1.95;;
22234;SDS011;11286;45.596;5.284;2022-07-11T13:54:59;3.30;;;1.90;;
22234;SDS011;11286;45.596;5.284;2022-07-11T13:57:26;2.83;;;1.95;;
22234;SDS011;11286;45.596;5.284;2022-07-11T13:59:51;2.88;;;2.00;;
22234;SDS011;11286;45.596;5.284;2022-07-11T14:02:17;2.42;;;1.80;;
22234;SDS011;11286;45.596;5.284;2022-07-11T14:04:43;2.42;;;2.00;;
22234;SDS011;11286;45.596;5.284;2022-07-11T14:07:09;4.07;;;1.73;;
22234;SDS011;11286;45.596;5.284;2022-07-11T14:09:38;2.78;;;1.80;;
22234;SDS011;11286;45.596;5.284;2022-07-11T14:12:04;3.08;;;2.08;;
22234;SDS011;11286;45.596;5.284;2022-07-11T14:14:31;5.07;;;2.03;;
22234;SDS011;11286;45.596;5.284;2022-07-11T14:17:00;3.05;;;2.28;;
22234;SDS011;11286;45.596;5.284;2022-07-11T14:19:26;3.90;;;2.10;;
22234;SDS011;11286;45.596;5.284;2022-07-11T14:21:52;2.25;;;1.80;;
22234;SDS011;11286;45.596;5.284;2022-07-11T14:24:19;3.83;;;2.00;;
22234;SDS011;11286;45.596;5.284;2022-07-11T14:26:44;2.75;;;1.77;;
22234;SDS011;11286;45.596;5.284;2022-07-11T14:29:11;2.15;;;1.90;;
22234;SDS011;11286;45.596;5.284;2022-07-11T14:31:37;7.20;;;2.70;;
22234;SDS011;11286;45.596;5.284;2022-07-11T14:34:04;3.50;;;2.15;;
22234;SDS011;11286;45.596;5.284;2022-07-11T14:36:30;2.10;;;1.77;;
22234;SDS011;11286;45.596;5.284;2022-07-11T14:38:56;2.58;;;2.10;;
22234;SDS011;11286;45.596;5.284;2022-07-11T14:41:21;5.88;;;2.20;;
22234;SDS011;11286;45.596;5.284;2022-07-11T14:43:47;4.45;;;2.15;;
22234;SDS011;11286;45.596;5.284;2022-07-11T14:46:14;2.50;;;1.88;;
22234;SDS011;11286;45.596;5.284;2022-07-11T14:48:41;3.22;;;2.13;;
22234;SDS011;11286;45.596;5.284;2022-07-11T14:51:07;1.98;;;1.83;;
22234;SDS011;11286;45.596;5.284;2022-07-11T14:53:33;4.72;;;2.25;;
22234;SDS011;11286;45.596;5.284;2022-07-11T14:56:01;2.40;;;2.00;;
22234;SDS011;11286;45.596;5.284;2022-07-11T14:58:27;3.35;;;2.10;;
22234;SDS011;11286;45.596;5.284;2022-07-11T15:00:53;5.97;;;2.10;;
22234;SDS011;11286;45.596;5.284;2022-07-11T15:03:19;4.15;;;2.00;;
22234;SDS011;11286;45.596;5.284;2022-07-11T15:06:03;2.88;;;1.90;;
22234;SDS011;11286;45.596;5.284;2022-07-11T15:08:37;2.53;;;2.15;;
22234;SDS011;11286;45.596;5.284;2022-07-11T15:11:21;4.68;;;2.20;;
22234;SDS011;11286;45.596;5.284;2022-07-11T15:14:06;2.55;;;1.80;;
22234;SDS011;11286;45.596;5.284;2022-07-11T15:16:32;2.25;;;2.00;;
22234;SDS011;11286;45.596;5.284;2022-07-11T15:19:02;3.53;;;2.15;;
22234;SDS011;11286;45.596;5.284;2022-07-11T15:21:30;2.30;;;2.00;;
22234;SDS011;11286;45.596;5.284;2022-07-11T15:23:56;2.33;;;2.13;;
22234;SDS011;11286;45.596;5.284;2022-07-11T15:26:22;3.90;;;2.00;;
22234;SDS011;11286;45.596;5.284;2022-07-11T15:28:48;2.50;;;2.28;;
22234;SDS011;11286;45.596;5.284;2022-07-11T15:31:15;2.78;;;2.10;;